Airport Name : Fort Lauderdale Hollywood Intl

Other Name : Fort Lauderdale

ICAO : KFLL

IATA : FLL

FAA : FLL

Latitude : 26.072583

Longitude : -80.15275

Country : United States

Local Date and Time : 24 Sep 2020 06:23

 

TAF (Terminal Aerodrome Forecast)

KFLL 240857Z 2409/2512 10011KT P6SM SCT020 BKN035 BKN250 FM241600 12014G22KT P6SM VCSH SCT030 BKN050 FM250000 12012KT P6SM VCSH SCT025 BKN050

 

METAR (METeorological Aerodrome Report)

KFLL 240953Z 12014KT 10SM FEW023 BKN036 28/22 A2991 RMK AO2 SLP129 T02780222

KFLL 240853Z 11010KT 10SM FEW025 27/22 A2991 RMK AO2 SLP128 T02720222 56014

KFLL 240753Z 10011KT 10SM FEW027 27/23 A2991 RMK AO2 SLP129 T02670228

KFLL 240653Z 11012KT 10SM FEW007 FEW031 27/22 A2993 RMK AO2 SLP135 T02720222

To Charter a Jet Click here.